Terminal Aerodrome Forecast
Issued by NWS Quad Cities IA IL

Current Version | Previous Version | Graphics & Text | Print | Product List | Glossary On
Versions: 1 2 3 4 5 6 7 8 9 10 11 12 13 14 15 16 17 18 19 20
000
FTUS43 KDVN 091724
TAFDBQ
TAF
KDBQ 091724Z 0918/1018 04010KT P6SM FEW200
     FM100300 VRB03KT P6SM BKN090
     FM100800 VRB04KT P6SM OVC060
     FM101500 01006KT P6SM SCT090=

USA.gov is the U.S. government's official web portal to all federal, state and local government web resources and services.